sensor_id;sensor_type;location;lat;lon;timestamp;temperature;humidity
14252;DHT22;7210;51.502;10.722;2023-04-01T00:01:50;8.40;99.90
14252;DHT22;7210;51.502;10.722;2023-04-01T00:04:17;8.40;99.90
14252;DHT22;7210;51.502;10.722;2023-04-01T00:06:45;8.50;99.90
14252;DHT22;7210;51.502;10.722;2023-04-01T00:09:17;8.40;99.90
14252;DHT22;7210;51.502;10.722;2023-04-01T00:11:44;8.50;99.90
14252;DHT22;7210;51.502;10.722;2023-04-01T00:14:12;8.50;99.90
14252;DHT22;7210;51.502;10.722;2023-04-01T00:16:41;8.50;99.90
14252;DHT22;7210;51.502;10.722;2023-04-01T00:19:08;8.50;99.90
14252;DHT22;7210;51.502;10.722;2023-04-01T00:21:35;8.50;99.90
14252;DHT22;7210;51.502;10.722;2023-04-01T00:24:02;8.50;99.90
14252;DHT22;7210;51.502;10.722;2023-04-01T00:26:30;8.60;99.90
14252;DHT22;7210;51.502;10.722;2023-04-01T00:28:58;8.60;99.90
14252;DHT22;7210;51.502;10.722;2023-04-01T00:31:26;8.60;99.90
14252;DHT22;7210;51.502;10.722;2023-04-01T00:33:55;8.60;99.90
14252;DHT22;7210;51.502;10.722;2023-04-01T00:36:23;8.60;99.90
14252;DHT22;7210;51.502;10.722;2023-04-01T00:38:50;8.60;99.90
14252;DHT22;7210;51.502;10.722;2023-04-01T00:41:19;8.50;99.90
14252;DHT22;7210;51.502;10.722;2023-04-01T00:43:48;8.60;99.90
14252;DHT22;7210;51.502;10.722;2023-04-01T00:46:17;8.50;99.90
14252;DHT22;7210;51.502;10.722;2023-04-01T00:48:48;8.60;99.90
14252;DHT22;7210;51.502;10.722;2023-04-01T00:51:22;8.50;99.90
14252;DHT22;7210;51.502;10.722;2023-04-01T00:53:54;8.50;99.90
14252;DHT22;7210;51.502;10.722;2023-04-01T00:56:26;8.50;99.90
14252;DHT22;7210;51.502;10.722;2023-04-01T00:58:58;8.50;99.90
14252;DHT22;7210;51.502;10.722;2023-04-01T01:01:29;8.50;99.90
14252;DHT22;7210;51.502;10.722;2023-04-01T01:03:57;8.50;99.90
14252;DHT22;7210;51.502;10.722;2023-04-01T01:06:37;8.50;99.90
14252;DHT22;7210;51.502;10.722;2023-04-01T01:09:28;8.50;99.90
14252;DHT22;7210;51.502;10.722;2023-04-01T01:12:09;8.60;99.90
14252;DHT22;7210;51.502;10.722;2023-04-01T01:14:52;8.50;99.90
14252;DHT22;7210;51.502;10.722;2023-04-01T01:17:31;8.50;99.90
14252;DHT22;7210;51.502;10.722;2023-04-01T01:23:37;8.50;99.90
14252;DHT22;7210;51.502;10.722;2023-04-01T01:26:52;8.50;99.90
14252;DHT22;7210;51.502;10.722;2023-04-01T01:32:53;8.50;99.90
14252;DHT22;7210;51.502;10.722;2023-04-01T01:35:33;8.40;99.90
14252;DHT22;7210;51.502;10.722;2023-04-01T01:38:13;8.40;99.90
14252;DHT22;7210;51.502;10.722;2023-04-01T01:40:51;8.40;99.90
14252;DHT22;7210;51.502;10.722;2023-04-01T01:43:24;8.50;99.90
14252;DHT22;7210;51.502;10.722;2023-04-01T01:46:05;8.50;99.90
14252;DHT22;7210;51.502;10.722;2023-04-01T01:48:36;8.50;99.90
14252;DHT22;7210;51.502;10.722;2023-04-01T01:51:08;8.50;99.90
14252;DHT22;7210;51.502;10.722;2023-04-01T01:53:36;8.40;99.90
14252;DHT22;7210;51.502;10.722;2023-04-01T01:56:04;8.40;99.90
14252;DHT22;7210;51.502;10.722;2023-04-01T01:58:43;8.40;99.90
14252;DHT22;7210;51.502;10.722;2023-04-01T02:01:17;8.40;99.90
14252;DHT22;7210;51.502;10.722;2023-04-01T02:03:50;8.40;99.90
14252;DHT22;7210;51.502;10.722;2023-04-01T02:06:22;8.40;99.90
14252;DHT22;7210;51.502;10.722;2023-04-01T02:08:55;8.50;99.90
14252;DHT22;7210;51.502;10.722;2023-04-01T02:14:23;8.50;99.90
14252;DHT22;7210;51.502;10.722;2023-04-01T02:16:55;8.60;99.90
14252;DHT22;7210;51.502;10.722;2023-04-01T02:19:27;8.60;99.90
14252;DHT22;7210;51.502;10.722;2023-04-01T02:22:02;8.60;99.90
14252;DHT22;7210;51.502;10.722;2023-04-01T02:24:33;8.60;99.90
14252;DHT22;7210;51.502;10.722;2023-04-01T02:27:03;8.60;99.90
14252;DHT22;7210;51.502;10.722;2023-04-01T02:29:31;8.50;99.90
14252;DHT22;7210;51.502;10.722;2023-04-01T02:31:59;8.60;99.90
14252;DHT22;7210;51.502;10.722;2023-04-01T02:34:27;8.60;99.90
14252;DHT22;7210;51.502;10.722;2023-04-01T02:36:55;8.60;99.90
14252;DHT22;7210;51.502;10.722;2023-04-01T02:39:25;8.60;99.90
14252;DHT22;7210;51.502;10.722;2023-04-01T02:41:53;8.60;99.90
14252;DHT22;7210;51.502;10.722;2023-04-01T02:44:20;8.50;99.90
14252;DHT22;7210;51.502;10.722;2023-04-01T02:46:48;8.50;99.90
14252;DHT22;7210;51.502;10.722;2023-04-01T02:49:15;8.50;99.90
14252;DHT22;7210;51.502;10.722;2023-04-01T02:51:48;8.50;99.90
14252;DHT22;7210;51.502;10.722;2023-04-01T02:54:15;8.50;99.90
14252;DHT22;7210;51.502;10.722;2023-04-01T02:56:44;8.40;99.90
14252;DHT22;7210;51.502;10.722;2023-04-01T02:59:12;8.30;99.90
14252;DHT22;7210;51.502;10.722;2023-04-01T03:01:39;8.30;99.90
14252;DHT22;7210;51.502;10.722;2023-04-01T03:04:06;8.30;99.90
14252;DHT22;7210;51.502;10.722;2023-04-01T03:06:33;8.20;99.90
14252;DHT22;7210;51.502;10.722;2023-04-01T03:09:01;8.20;99.90
14252;DHT22;7210;51.502;10.722;2023-04-01T03:11:29;8.30;99.90
14252;DHT22;7210;51.502;10.722;2023-04-01T03:13:57;8.30;99.90
14252;DHT22;7210;51.502;10.722;2023-04-01T03:16:24;8.30;99.90
14252;DHT22;7210;51.502;10.722;2023-04-01T03:18:52;8.20;99.90
14252;DHT22;7210;51.502;10.722;2023-04-01T03:21:22;8.20;99.90
14252;DHT22;7210;51.502;10.722;2023-04-01T03:23:50;8.20;99.90
14252;DHT22;7210;51.502;10.722;2023-04-01T03:26:18;8.20;99.90
14252;DHT22;7210;51.502;10.722;2023-04-01T03:28:45;8.20;99.90
14252;DHT22;7210;51.502;10.722;2023-04-01T03:31:14;8.20;99.90
14252;DHT22;7210;51.502;10.722;2023-04-01T03:33:48;8.20;99.90
14252;DHT22;7210;51.502;10.722;2023-04-01T03:36:16;8.20;99.90
14252;DHT22;7210;51.502;10.722;2023-04-01T03:38:44;8.20;99.90
14252;DHT22;7210;51.502;10.722;2023-04-01T03:41:17;8.20;99.90
14252;DHT22;7210;51.502;10.722;2023-04-01T03:43:44;8.10;99.90
14252;DHT22;7210;51.502;10.722;2023-04-01T03:46:18;8.20;99.90
14252;DHT22;7210;51.502;10.722;2023-04-01T03:48:46;8.20;99.90
14252;DHT22;7210;51.502;10.722;2023-04-01T03:51:13;8.10;99.90
14252;DHT22;7210;51.502;10.722;2023-04-01T03:53:41;8.10;99.90
14252;DHT22;7210;51.502;10.722;2023-04-01T03:56:09;8.10;99.90
14252;DHT22;7210;51.502;10.722;2023-04-01T03:58:37;8.20;99.90
14252;DHT22;7210;51.502;10.722;2023-04-01T04:01:14;8.20;99.90
14252;DHT22;7210;51.502;10.722;2023-04-01T04:03:44;8.10;99.90
14252;DHT22;7210;51.502;10.722;2023-04-01T04:06:13;8.10;99.90
14252;DHT22;7210;51.502;10.722;2023-04-01T04:08:41;8.10;99.90
14252;DHT22;7210;51.502;10.722;2023-04-01T04:11:08;8.10;99.90
14252;DHT22;7210;51.502;10.722;2023-04-01T04:13:39;8.10;99.90
14252;DHT22;7210;51.502;10.722;2023-04-01T04:16:06;8.10;99.90
14252;DHT22;7210;51.502;10.722;2023-04-01T04:18:40;8.10;99.90
14252;DHT22;7210;51.502;10.722;2023-04-01T04:21:12;8.10;99.90
14252;DHT22;7210;51.502;10.722;2023-04-01T04:23:41;8.10;99.90
14252;DHT22;7210;51.502;10.722;2023-04-01T04:26:10;8.10;99.90
14252;DHT22;7210;51.502;10.722;2023-04-01T04:28:39;8.10;99.90
14252;DHT22;7210;51.502;10.722;2023-04-01T04:31:07;8.10;99.90
14252;DHT22;7210;51.502;10.722;2023-04-01T04:33:36;8.10;99.90
14252;DHT22;7210;51.502;10.722;2023-04-01T04:36:04;8.10;99.90
14252;DHT22;7210;51.502;10.722;2023-04-01T04:38:33;8.10;99.90
14252;DHT22;7210;51.502;10.722;2023-04-01T04:41:00;8.10;99.90
14252;DHT22;7210;51.502;10.722;2023-04-01T04:43:28;8.10;99.90
14252;DHT22;7210;51.502;10.722;2023-04-01T04:45:56;8.10;99.90
14252;DHT22;7210;51.502;10.722;2023-04-01T04:48:23;8.10;99.90
14252;DHT22;7210;51.502;10.722;2023-04-01T04:50:51;8.10;99.90
14252;DHT22;7210;51.502;10.722;2023-04-01T04:53:22;8.10;99.90
14252;DHT22;7210;51.502;10.722;2023-04-01T04:55:52;8.10;99.90
14252;DHT22;7210;51.502;10.722;2023-04-01T04:58:43;8.10;99.90
14252;DHT22;7210;51.502;10.722;2023-04-01T05:01:17;8.10;99.90
14252;DHT22;7210;51.502;10.722;2023-04-01T05:03:45;8.10;99.90
14252;DHT22;7210;51.502;10.722;2023-04-01T05:06:14;8.10;99.90
14252;DHT22;7210;51.502;10.722;2023-04-01T05:08:44;8.10;99.90
14252;DHT22;7210;51.502;10.722;2023-04-01T05:11:15;8.20;99.90
14252;DHT22;7210;51.502;10.722;2023-04-01T05:13:46;8.20;99.90
14252;DHT22;7210;51.502;10.722;2023-04-01T05:16:16;8.20;99.90
14252;DHT22;7210;51.502;10.722;2023-04-01T05:18:44;8.20;99.90
14252;DHT22;7210;51.502;10.722;2023-04-01T05:21:13;8.20;99.90
14252;DHT22;7210;51.502;10.722;2023-04-01T05:23:41;8.20;99.90
14252;DHT22;7210;51.502;10.722;2023-04-01T05:26:11;8.20;99.90
14252;DHT22;7210;51.502;10.722;2023-04-01T05:28:42;8.20;99.90
14252;DHT22;7210;51.502;10.722;2023-04-01T05:31:09;8.30;99.90
14252;DHT22;7210;51.502;10.722;2023-04-01T05:33:39;8.30;99.90
14252;DHT22;7210;51.502;10.722;2023-04-01T05:36:08;8.30;99.90
14252;DHT22;7210;51.502;10.722;2023-04-01T05:38:37;8.30;99.90
14252;DHT22;7210;51.502;10.722;2023-04-01T05:41:09;8.40;99.90
14252;DHT22;7210;51.502;10.722;2023-04-01T05:43:42;8.40;99.90
14252;DHT22;7210;51.502;10.722;2023-04-01T05:46:28;8.40;99.90
14252;DHT22;7210;51.502;10.722;2023-04-01T05:49:11;8.40;99.90
14252;DHT22;7210;51.502;10.722;2023-04-01T05:51:38;8.50;99.90
14252;DHT22;7210;51.502;10.722;2023-04-01T05:54:08;8.60;99.90
14252;DHT22;7210;51.502;10.722;2023-04-01T05:56:36;8.50;99.90
14252;DHT22;7210;51.502;10.722;2023-04-01T05:59:05;8.60;99.90
14252;DHT22;7210;51.502;10.722;2023-04-01T06:01:32;8.60;99.90
14252;DHT22;7210;51.502;10.722;2023-04-01T06:04:00;8.70;99.90
14252;DHT22;7210;51.502;10.722;2023-04-01T06:06:28;8.70;99.90
14252;DHT22;7210;51.502;10.722;2023-04-01T06:09:13;8.80;99.90
14252;DHT22;7210;51.502;10.722;2023-04-01T06:12:04;8.80;99.90
14252;DHT22;7210;51.502;10.722;2023-04-01T06:15:02;8.80;99.90
14252;DHT22;7210;51.502;10.722;2023-04-01T06:17:58;8.90;99.90
14252;DHT22;7210;51.502;10.722;2023-04-01T06:20:41;9.00;99.90
14252;DHT22;7210;51.502;10.722;2023-04-01T06:23:25;9.00;99.90
14252;DHT22;7210;51.502;10.722;2023-04-01T06:26:20;9.10;99.90
14252;DHT22;7210;51.502;10.722;2023-04-01T06:32:15;9.40;99.90
14252;DHT22;7210;51.502;10.722;2023-04-01T06:35:07;9.50;99.90
14252;DHT22;7210;51.502;10.722;2023-04-01T06:38:30;9.80;99.90
14252;DHT22;7210;51.502;10.722;2023-04-01T06:41:27;9.90;99.90
14252;DHT22;7210;51.502;10.722;2023-04-01T06:44:16;9.90;99.90
14252;DHT22;7210;51.502;10.722;2023-04-01T06:47:22;10.00;99.90
14252;DHT22;7210;51.502;10.722;2023-04-01T06:50:23;10.00;99.90
14252;DHT22;7210;51.502;10.722;2023-04-01T06:53:18;10.00;99.90
14252;DHT22;7210;51.502;10.722;2023-04-01T06:56:12;10.10;99.90
14252;DHT22;7210;51.502;10.722;2023-04-01T06:59:16;10.10;99.90
14252;DHT22;7210;51.502;10.722;2023-04-01T07:01:50;10.10;99.90
14252;DHT22;7210;51.502;10.722;2023-04-01T07:04:24;10.00;99.90
14252;DHT22;7210;51.502;10.722;2023-04-01T07:06:58;10.00;99.90
14252;DHT22;7210;51.502;10.722;2023-04-01T07:09:33;10.00;99.90
14252;DHT22;7210;51.502;10.722;2023-04-01T07:12:27;10.20;99.90
14252;DHT22;7210;51.502;10.722;2023-04-01T07:15:24;10.10;99.90
14252;DHT22;7210;51.502;10.722;2023-04-01T07:17:56;10.10;99.90
14252;DHT22;7210;51.502;10.722;2023-04-01T07:20:32;10.20;99.90
14252;DHT22;7210;51.502;10.722;2023-04-01T07:23:06;10.20;99.90
14252;DHT22;7210;51.502;10.722;2023-04-01T07:26:10;10.20;99.90
14252;DHT22;7210;51.502;10.722;2023-04-01T07:29:02;10.20;99.90
14252;DHT22;7210;51.502;10.722;2023-04-01T07:32:04;10.10;99.90
14252;DHT22;7210;51.502;10.722;2023-04-01T07:34:50;10.10;99.90
14252;DHT22;7210;51.502;10.722;2023-04-01T07:37:31;10.10;99.90
14252;DHT22;7210;51.502;10.722;2023-04-01T07:40:28;10.10;99.90
14252;DHT22;7210;51.502;10.722;2023-04-01T07:43:15;10.20;99.90
14252;DHT22;7210;51.502;10.722;2023-04-01T07:46:07;10.20;99.90
14252;DHT22;7210;51.502;10.722;2023-04-01T07:48:49;10.20;99.90
14252;DHT22;7210;51.502;10.722;2023-04-01T07:51:24;10.30;99.90
14252;DHT22;7210;51.502;10.722;2023-04-01T07:54:04;10.30;99.90
14252;DHT22;7210;51.502;10.722;2023-04-01T07:56:42;10.20;99.90
14252;DHT22;7210;51.502;10.722;2023-04-01T07:59:29;10.30;99.90
14252;DHT22;7210;51.502;10.722;2023-04-01T08:02:28;10.30;99.90
14252;DHT22;7210;51.502;10.722;2023-04-01T08:05:11;10.30;99.90
14252;DHT22;7210;51.502;10.722;2023-04-01T08:08:00;10.20;99.90
14252;DHT22;7210;51.502;10.722;2023-04-01T08:10:59;10.30;99.90
14252;DHT22;7210;51.502;10.722;2023-04-01T08:13:58;10.30;99.90
14252;DHT22;7210;51.502;10.722;2023-04-01T08:17:01;10.20;99.90
14252;DHT22;7210;51.502;10.722;2023-04-01T08:19:49;10.30;99.90
14252;DHT22;7210;51.502;10.722;2023-04-01T08:22:29;10.50;99.90
14252;DHT22;7210;51.502;10.722;2023-04-01T08:25:09;10.50;99.90
14252;DHT22;7210;51.502;10.722;2023-04-01T08:27:50;10.60;99.90
14252;DHT22;7210;51.502;10.722;2023-04-01T08:30:24;10.60;99.90
14252;DHT22;7210;51.502;10.722;2023-04-01T08:32:55;10.60;99.90
14252;DHT22;7210;51.502;10.722;2023-04-01T08:35:29;10.60;99.90
14252;DHT22;7210;51.502;10.722;2023-04-01T08:38:05;10.60;99.90
14252;DHT22;7210;51.502;10.722;2023-04-01T08:40:58;10.70;99.90
14252;DHT22;7210;51.502;10.722;2023-04-01T08:44:21;10.80;99.90
14252;DHT22;7210;51.502;10.722;2023-04-01T08:47:30;10.80;99.90
14252;DHT22;7210;51.502;10.722;2023-04-01T08:53:47;11.00;99.90
14252;DHT22;7210;51.502;10.722;2023-04-01T08:56:34;11.10;99.90
14252;DHT22;7210;51.502;10.722;2023-04-01T08:59:27;11.30;99.90
14252;DHT22;7210;51.502;10.722;2023-04-01T09:02:48;11.30;99.90
14252;DHT22;7210;51.502;10.722;2023-04-01T09:05:42;11.30;99.90
14252;DHT22;7210;51.502;10.722;2023-04-01T09:08:38;11.40;99.90
14252;DHT22;7210;51.502;10.722;2023-04-01T09:11:30;11.40;99.90
14252;DHT22;7210;51.502;10.722;2023-04-01T09:14:57;11.40;99.90
14252;DHT22;7210;51.502;10.722;2023-04-01T09:18:15;11.30;99.90
14252;DHT22;7210;51.502;10.722;2023-04-01T09:21:17;11.40;99.90
14252;DHT22;7210;51.502;10.722;2023-04-01T09:24:26;11.50;99.90
14252;DHT22;7210;51.502;10.722;2023-04-01T09:27:18;11.60;99.90
14252;DHT22;7210;51.502;10.722;2023-04-01T09:33:49;11.60;99.90
14252;DHT22;7210;51.502;10.722;2023-04-01T09:37:18;11.50;99.90
14252;DHT22;7210;51.502;10.722;2023-04-01T09:40:14;11.60;99.90
14252;DHT22;7210;51.502;10.722;2023-04-01T09:43:06;11.60;99.90
14252;DHT22;7210;51.502;10.722;2023-04-01T09:46:14;11.60;99.90
14252;DHT22;7210;51.502;10.722;2023-04-01T09:49:32;11.50;99.90
14252;DHT22;7210;51.502;10.722;2023-04-01T09:52:28;11.50;99.90
14252;DHT22;7210;51.502;10.722;2023-04-01T09:55:31;11.70;99.90
14252;DHT22;7210;51.502;10.722;2023-04-01T10:12:49;11.70;99.90
14252;DHT22;7210;51.502;10.722;2023-04-01T10:19:31;11.80;99.90
14252;DHT22;7210;51.502;10.722;2023-04-01T10:23:02;11.80;99.90
14252;DHT22;7210;51.502;10.722;2023-04-01T10:26:18;11.90;99.90
14252;DHT22;7210;51.502;10.722;2023-04-01T10:33:21;11.90;99.90
14252;DHT22;7210;51.502;10.722;2023-04-01T10:44:37;12.20;99.90
14252;DHT22;7210;51.502;10.722;2023-04-01T11:31:50;12.50;99.90
14252;DHT22;7210;51.502;10.722;2023-04-01T11:34:48;12.60;99.90
14252;DHT22;7210;51.502;10.722;2023-04-01T11:37:33;12.50;99.90
14252;DHT22;7210;51.502;10.722;2023-04-01T11:40:35;12.50;99.90
14252;DHT22;7210;51.502;10.722;2023-04-01T11:43:54;12.20;99.90
14252;DHT22;7210;51.502;10.722;2023-04-01T11:47:10;12.30;99.90
14252;DHT22;7210;51.502;10.722;2023-04-01T11:49:59;12.10;99.90
14252;DHT22;7210;51.502;10.722;2023-04-01T11:53:09;12.00;99.90
14252;DHT22;7210;51.502;10.722;2023-04-01T11:55:58;12.10;99.90
14252;DHT22;7210;51.502;10.722;2023-04-01T11:59:03;12.20;99.90
14252;DHT22;7210;51.502;10.722;2023-04-01T12:01:54;12.30;99.90
14252;DHT22;7210;51.502;10.722;2023-04-01T12:04:54;12.40;99.90
14252;DHT22;7210;51.502;10.722;2023-04-01T12:07:50;12.30;99.90
14252;DHT22;7210;51.502;10.722;2023-04-01T12:10:28;12.40;99.90
14252;DHT22;7210;51.502;10.722;2023-04-01T12:13:11;12.50;99.90
14252;DHT22;7210;51.502;10.722;2023-04-01T12:15:58;12.50;99.90
14252;DHT22;7210;51.502;10.722;2023-04-01T12:18:40;12.60;99.90
14252;DHT22;7210;51.502;10.722;2023-04-01T12:21:23;12.60;99.90
14252;DHT22;7210;51.502;10.722;2023-04-01T12:24:36;12.60;99.90
14252;DHT22;7210;51.502;10.722;2023-04-01T12:27:29;12.60;99.90
14252;DHT22;7210;51.502;10.722;2023-04-01T12:30:21;12.50;99.90
14252;DHT22;7210;51.502;10.722;2023-04-01T12:33:11;12.60;99.90
14252;DHT22;7210;51.502;10.722;2023-04-01T12:36:20;12.70;99.90
14252;DHT22;7210;51.502;10.722;2023-04-01T12:39:17;12.80;99.90
14252;DHT22;7210;51.502;10.722;2023-04-01T12:42:07;13.00;99.90
14252;DHT22;7210;51.502;10.722;2023-04-01T12:45:00;13.00;99.90
14252;DHT22;7210;51.502;10.722;2023-04-01T12:51:29;13.00;99.90
14252;DHT22;7210;51.502;10.722;2023-04-01T12:54:49;12.90;99.90
14252;DHT22;7210;51.502;10.722;2023-04-01T12:58:06;12.80;99.90
14252;DHT22;7210;51.502;10.722;2023-04-01T13:01:06;12.60;99.90
14252;DHT22;7210;51.502;10.722;2023-04-01T13:04:01;12.30;99.90
14252;DHT22;7210;51.502;10.722;2023-04-01T13:07:03;12.00;99.90
14252;DHT22;7210;51.502;10.722;2023-04-01T13:09:52;11.80;99.90
14252;DHT22;7210;51.502;10.722;2023-04-01T13:12:40;11.70;99.90
14252;DHT22;7210;51.502;10.722;2023-04-01T13:15:28;11.80;99.90
14252;DHT22;7210;51.502;10.722;2023-04-01T13:18:16;11.70;99.90
14252;DHT22;7210;51.502;10.722;2023-04-01T13:21:01;12.00;99.90
14252;DHT22;7210;51.502;10.722;2023-04-01T13:23:52;12.30;99.90
14252;DHT22;7210;51.502;10.722;2023-04-01T13:26:36;12.50;99.90
14252;DHT22;7210;51.502;10.722;2023-04-01T13:29:13;12.60;99.90
14252;DHT22;7210;51.502;10.722;2023-04-01T13:31:55;12.80;99.90
14252;DHT22;7210;51.502;10.722;2023-04-01T13:34:52;13.10;99.90
14252;DHT22;7210;51.502;10.722;2023-04-01T13:38:38;13.00;99.90
14252;DHT22;7210;51.502;10.722;2023-04-01T13:41:30;13.10;99.90
14252;DHT22;7210;51.502;10.722;2023-04-01T13:44:15;13.00;99.90
14252;DHT22;7210;51.502;10.722;2023-04-01T13:47:06;12.90;99.90
14252;DHT22;7210;51.502;10.722;2023-04-01T13:50:15;12.60;99.90
14252;DHT22;7210;51.502;10.722;2023-04-01T13:56:23;12.10;99.90
14252;DHT22;7210;51.502;10.722;2023-04-01T14:02:20;11.70;99.90
14252;DHT22;7210;51.502;10.722;2023-04-01T14:05:17;11.60;99.90
14252;DHT22;7210;51.502;10.722;2023-04-01T14:08:17;11.60;99.90
14252;DHT22;7210;51.502;10.722;2023-04-01T14:11:02;11.60;99.90
14252;DHT22;7210;51.502;10.722;2023-04-01T14:13:47;11.60;99.90
14252;DHT22;7210;51.502;10.722;2023-04-01T14:16:50;11.50;99.90
14252;DHT22;7210;51.502;10.722;2023-04-01T14:19:50;11.50;99.90
14252;DHT22;7210;51.502;10.722;2023-04-01T14:22:34;11.50;99.90
14252;DHT22;7210;51.502;10.722;2023-04-01T14:25:29;11.50;99.90
14252;DHT22;7210;51.502;10.722;2023-04-01T14:28:13;11.50;99.90
14252;DHT22;7210;51.502;10.722;2023-04-01T14:31:21;11.50;99.90
14252;DHT22;7210;51.502;10.722;2023-04-01T14:34:06;11.50;99.90
14252;DHT22;7210;51.502;10.722;2023-04-01T14:36:52;11.60;99.90
14252;DHT22;7210;51.502;10.722;2023-04-01T14:39:43;11.60;99.90
14252;DHT22;7210;51.502;10.722;2023-04-01T14:43:08;11.60;99.90
14252;DHT22;7210;51.502;10.722;2023-04-01T14:46:09;11.60;99.90
14252;DHT22;7210;51.502;10.722;2023-04-01T14:48:51;11.60;99.90
14252;DHT22;7210;51.502;10.722;2023-04-01T14:51:29;11.60;99.90
14252;DHT22;7210;51.502;10.722;2023-04-01T14:54:04;11.60;99.90
14252;DHT22;7210;51.502;10.722;2023-04-01T14:56:40;11.50;99.90
14252;DHT22;7210;51.502;10.722;2023-04-01T14:59:13;11.50;99.90
14252;DHT22;7210;51.502;10.722;2023-04-01T15:01:51;11.50;99.90
14252;DHT22;7210;51.502;10.722;2023-04-01T15:07:45;11.60;99.90
14252;DHT22;7210;51.502;10.722;2023-04-01T15:10:38;11.60;99.90
14252;DHT22;7210;51.502;10.722;2023-04-01T15:16:41;11.40;99.90
14252;DHT22;7210;51.502;10.722;2023-04-01T15:19:31;11.40;99.90
14252;DHT22;7210;51.502;10.722;2023-04-01T15:22:35;11.40;99.90
14252;DHT22;7210;51.502;10.722;2023-04-01T15:25:43;11.40;99.90
14252;DHT22;7210;51.502;10.722;2023-04-01T15:28:29;11.40;99.90
14252;DHT22;7210;51.502;10.722;2023-04-01T15:31:11;11.40;99.90
14252;DHT22;7210;51.502;10.722;2023-04-01T15:34:00;11.40;99.90
14252;DHT22;7210;51.502;10.722;2023-04-01T15:36:45;11.30;99.90
14252;DHT22;7210;51.502;10.722;2023-04-01T15:39:24;11.20;99.90
14252;DHT22;7210;51.502;10.722;2023-04-01T15:42:23;11.10;99.90
14252;DHT22;7210;51.502;10.722;2023-04-01T15:45:15;11.00;99.90
14252;DHT22;7210;51.502;10.722;2023-04-01T15:47:58;10.80;99.90
14252;DHT22;7210;51.502;10.722;2023-04-01T15:50:54;10.70;99.90
14252;DHT22;7210;51.502;10.722;2023-04-01T15:53:56;10.60;99.90
14252;DHT22;7210;51.502;10.722;2023-04-01T15:57:04;10.50;99.90
14252;DHT22;7210;51.502;10.722;2023-04-01T15:59:58;10.40;99.90
14252;DHT22;7210;51.502;10.722;2023-04-01T16:02:46;10.30;99.90
14252;DHT22;7210;51.502;10.722;2023-04-01T16:05:28;10.30;99.90
14252;DHT22;7210;51.502;10.722;2023-04-01T16:08:19;10.20;99.90
14252;DHT22;7210;51.502;10.722;2023-04-01T16:11:18;10.20;99.90
14252;DHT22;7210;51.502;10.722;2023-04-01T16:14:07;10.20;99.90
14252;DHT22;7210;51.502;10.722;2023-04-01T16:16:58;10.20;99.90
14252;DHT22;7210;51.502;10.722;2023-04-01T16:19:51;10.10;99.90
14252;DHT22;7210;51.502;10.722;2023-04-01T16:22:26;10.10;99.90
14252;DHT22;7210;51.502;10.722;2023-04-01T16:25:17;10.10;99.90
14252;DHT22;7210;51.502;10.722;2023-04-01T16:27:53;10.30;99.90
14252;DHT22;7210;51.502;10.722;2023-04-01T16:30:34;10.40;99.90
14252;DHT22;7210;51.502;10.722;2023-04-01T16:33:07;10.30;99.90
14252;DHT22;7210;51.502;10.722;2023-04-01T16:35:44;10.20;99.90
14252;DHT22;7210;51.502;10.722;2023-04-01T16:38:20;10.10;99.90
14252;DHT22;7210;51.502;10.722;2023-04-01T16:41:01;10.10;99.90
14252;DHT22;7210;51.502;10.722;2023-04-01T16:43:40;10.10;99.90
14252;DHT22;7210;51.502;10.722;2023-04-01T16:46:29;10.00;99.90
14252;DHT22;7210;51.502;10.722;2023-04-01T16:49:23;10.00;99.90
14252;DHT22;7210;51.502;10.722;2023-04-01T16:52:04;10.00;99.90
14252;DHT22;7210;51.502;10.722;2023-04-01T16:54:45;10.00;99.90
14252;DHT22;7210;51.502;10.722;2023-04-01T16:57:24;9.90;99.90
14252;DHT22;7210;51.502;10.722;2023-04-01T16:59:57;9.90;99.90
14252;DHT22;7210;51.502;10.722;2023-04-01T17:02:35;9.90;99.90
14252;DHT22;7210;51.502;10.722;2023-04-01T17:05:08;9.90;99.90
14252;DHT22;7210;51.502;10.722;2023-04-01T17:07:46;9.80;99.90
14252;DHT22;7210;51.502;10.722;2023-04-01T17:10:33;9.80;99.90
14252;DHT22;7210;51.502;10.722;2023-04-01T17:13:29;9.80;99.90
14252;DHT22;7210;51.502;10.722;2023-04-01T17:16:14;9.80;99.90
14252;DHT22;7210;51.502;10.722;2023-04-01T17:19:01;9.80;99.90
14252;DHT22;7210;51.502;10.722;2023-04-01T17:21:48;9.80;99.90
14252;DHT22;7210;51.502;10.722;2023-04-01T17:24:39;9.70;99.90
14252;DHT22;7210;51.502;10.722;2023-04-01T17:27:30;9.70;99.90
14252;DHT22;7210;51.502;10.722;2023-04-01T17:30:30;9.70;99.90
14252;DHT22;7210;51.502;10.722;2023-04-01T17:33:15;9.70;99.90
14252;DHT22;7210;51.502;10.722;2023-04-01T17:36:19;9.70;99.90
14252;DHT22;7210;51.502;10.722;2023-04-01T17:39:14;9.60;99.90
14252;DHT22;7210;51.502;10.722;2023-04-01T17:41:56;9.60;99.90
14252;DHT22;7210;51.502;10.722;2023-04-01T17:44:38;9.60;99.90
14252;DHT22;7210;51.502;10.722;2023-04-01T17:50:25;9.50;99.90
14252;DHT22;7210;51.502;10.722;2023-04-01T17:53:13;9.50;99.90
14252;DHT22;7210;51.502;10.722;2023-04-01T17:56:06;9.50;99.90
14252;DHT22;7210;51.502;10.722;2023-04-01T17:58:45;9.50;99.90
14252;DHT22;7210;51.502;10.722;2023-04-01T18:01:26;9.50;99.90
14252;DHT22;7210;51.502;10.722;2023-04-01T18:04:29;9.40;99.90
14252;DHT22;7210;51.502;10.722;2023-04-01T18:10:36;9.40;98.70
14252;DHT22;7210;51.502;10.722;2023-04-01T18:16:43;9.40;97.60
14252;DHT22;7210;51.502;10.722;2023-04-01T18:19:28;9.30;90.80
14252;DHT22;7210;51.502;10.722;2023-04-01T18:22:10;9.30;84.00
14252;DHT22;7210;51.502;10.722;2023-04-01T18:24:54;9.30;77.90
14252;DHT22;7210;51.502;10.722;2023-04-01T18:27:30;9.30;74.40
14252;DHT22;7210;51.502;10.722;2023-04-01T18:30:11;9.30;74.40
14252;DHT22;7210;51.502;10.722;2023-04-01T18:32:46;9.30;69.80
14252;DHT22;7210;51.502;10.722;2023-04-01T18:35:29;9.20;72.90
14252;DHT22;7210;51.502;10.722;2023-04-01T18:38:13;9.20;68.40
14252;DHT22;7210;51.502;10.722;2023-04-01T18:40:46;9.20;60.90
14252;DHT22;7210;51.502;10.722;2023-04-01T18:43:27;9.20;58.00
14252;DHT22;7210;51.502;10.722;2023-04-01T18:46:07;9.20;55.10
14252;DHT22;7210;51.502;10.722;2023-04-01T18:48:51;9.20;54.80
14252;DHT22;7210;51.502;10.722;2023-04-01T18:51:36;9.20;54.50
14252;DHT22;7210;51.502;10.722;2023-04-01T18:54:16;9.30;52.10
14252;DHT22;7210;51.502;10.722;2023-04-01T18:56:49;9.20;53.00
14252;DHT22;7210;51.502;10.722;2023-04-01T18:59:20;9.30;78.70
14252;DHT22;7210;51.502;10.722;2023-04-01T19:02:00;9.20;59.40
14252;DHT22;7210;51.502;10.722;2023-04-01T19:04:38;9.20;61.50
14252;DHT22;7210;51.502;10.722;2023-04-01T19:10:17;9.20;54.20
14252;DHT22;7210;51.502;10.722;2023-04-01T19:13:09;9.20;50.20
14252;DHT22;7210;51.502;10.722;2023-04-01T19:15:49;9.20;49.20
14252;DHT22;7210;51.502;10.722;2023-04-01T19:18:52;9.20;49.70
14252;DHT22;7210;51.502;10.722;2023-04-01T19:21:33;9.30;61.20
14252;DHT22;7210;51.502;10.722;2023-04-01T19:24:35;9.20;98.60
14252;DHT22;7210;51.502;10.722;2023-04-01T19:27:26;9.20;99.90